Time;durP1;ratioP1;P1;durP2;ratioP2;P2;SDS_P1;SDS_P2;PMS_P1;PMS_P2;Temp;Humidity;BMP_temperature;BMP_pressure;BME280_temperature;BME280_humidity;BME280_pressure;Samples;Min_cycle;Max_cycle;Signal;HPM_P1;HPM_P2
2022/07/13 00:01:54;;;;;;;1.83;1.30;;;18.10;99.90;;;;;;5065191;28;20637;-71
2022/07/13 00:04:21;;;;;;;3.03;1.10;;;18.00;99.90;;;;;;5015636;28;20203;-72
2022/07/13 00:06:48;;;;;;;3.73;1.10;;;18.00;99.90;;;;;;5032122;28;20614;-73
2022/07/13 00:09:15;;;;;;;3.63;1.33;;;18.00;99.90;;;;;;5032404;28;20199;-73
2022/07/13 00:11:42;;;;;;;2.60;1.00;;;17.90;99.90;;;;;;5065707;28;20195;-73
2022/07/13 00:14:08;;;;;;;6.77;1.20;;;17.90;99.90;;;;;;5065331;28;20203;-73
2022/07/13 00:16:35;;;;;;;3.67;1.23;;;17.90;99.90;;;;;;5033182;28;20556;-73
2022/07/13 00:19:02;;;;;;;2.33;1.20;;;17.90;99.90;;;;;;5033505;28;20250;-72
2022/07/13 00:21:29;;;;;;;4.43;1.20;;;17.80;99.90;;;;;;5031785;28;20199;-73
2022/07/13 00:23:58;;;;;;;4.37;1.57;;;17.80;99.90;;;;;;5031948;28;20202;-72
2022/07/13 00:26:25;;;;;;;4.03;1.27;;;17.70;99.90;;;;;;5032110;28;20231;-72
2022/07/13 00:28:52;;;;;;;4.27;1.20;;;17.80;99.90;;;;;;5031637;28;20237;-72
2022/07/13 00:31:19;;;;;;;3.00;1.30;;;17.70;99.90;;;;;;5031839;28;20199;-72
2022/07/13 00:33:46;;;;;;;3.50;1.40;;;17.70;99.90;;;;;;5032732;28;20258;-72
2022/07/13 00:36:13;;;;;;;4.07;1.30;;;17.70;99.90;;;;;;5031225;28;20205;-72
2022/07/13 00:38:40;;;;;;;3.33;1.27;;;17.60;99.90;;;;;;5065181;28;20234;-72
2022/07/13 00:41:07;;;;;;;3.03;1.40;;;17.60;99.90;;;;;;5032019;28;20222;-72
2022/07/13 00:43:34;;;;;;;4.43;1.57;;;17.60;99.90;;;;;;5032146;28;20725;-72
2022/07/13 00:46:01;;;;;;;4.23;1.53;;;17.60;99.90;;;;;;5031722;28;20211;-72
2022/07/13 00:48:29;;;;;;;3.90;1.30;;;17.60;99.90;;;;;;5031875;28;20548;-73
2022/07/13 00:50:56;;;;;;;4.27;1.40;;;17.60;99.90;;;;;;5031614;28;20261;-72
2022/07/13 00:53:24;;;;;;;2.87;1.50;;;17.50;99.90;;;;;;5031817;28;20557;-72
2022/07/13 00:55:51;;;;;;;3.40;1.30;;;17.50;99.90;;;;;;5032843;28;20574;-72
2022/07/13 00:58:18;;;;;;;3.50;1.37;;;17.40;99.90;;;;;;5065116;28;20200;-72
2022/07/13 01:00:45;;;;;;;2.67;1.47;;;17.40;99.90;;;;;;5031389;28;20306;-72
2022/07/13 01:03:12;;;;;;;3.93;1.43;;;17.50;99.90;;;;;;5031662;28;20696;-72
2022/07/13 01:05:40;;;;;;;3.23;1.60;;;17.40;99.90;;;;;;5034063;28;20299;-72
2022/07/13 01:08:07;;;;;;;3.67;1.73;;;17.40;99.90;;;;;;5035381;28;20188;-72
2022/07/13 01:10:34;;;;;;;3.53;1.60;;;17.30;99.90;;;;;;5035541;28;20302;-72
2022/07/13 01:13:01;;;;;;;3.03;1.50;;;17.30;99.90;;;;;;5068355;28;20294;-72
2022/07/13 01:15:28;;;;;;;6.43;1.70;;;17.30;99.90;;;;;;5035702;28;20538;-72
2022/07/13 01:17:56;;;;;;;4.93;1.50;;;17.30;99.90;;;;;;5035010;28;20306;-71
2022/07/13 01:20:23;;;;;;;3.83;1.60;;;17.40;99.90;;;;;;5034986;28;20334;-71
2022/07/13 01:22:53;;;;;;;4.43;1.40;;;17.40;99.90;;;;;;5068347;28;20636;-73
2022/07/13 01:25:20;;;;;;;3.67;1.73;;;17.30;99.90;;;;;;5034912;28;20214;-73
2022/07/13 01:27:49;;;;;;;4.03;1.77;;;17.30;99.90;;;;;;5034591;28;20216;-72
2022/07/13 01:30:16;;;;;;;2.57;1.60;;;17.30;99.90;;;;;;5036268;28;20191;-72
2022/07/13 01:32:50;;;;;;;3.77;1.50;;;17.40;99.90;;;;;;5034568;28;20645;-73
2022/07/13 01:35:20;;;;;;;4.57;1.60;;;17.40;99.90;;;;;;5034966;28;20202;-72
2022/07/13 01:37:47;;;;;;;3.43;1.50;;;17.40;99.90;;;;;;5018159;28;20243;-73
2022/07/13 01:40:15;;;;;;;3.00;1.60;;;17.30;99.90;;;;;;5034821;28;20323;-72
2022/07/13 01:42:47;;;;;;;3.67;1.63;;;17.30;99.90;;;;;;5067771;28;20203;-72
2022/07/13 01:45:16;;;;;;;4.47;1.90;;;17.30;99.90;;;;;;5034375;28;20208;-72
2022/07/13 01:47:48;;;;;;;2.40;1.77;;;17.30;99.90;;;;;;5034678;28;20298;-72
2022/07/13 01:50:17;;;;;;;5.90;3.23;;;17.10;99.90;;;;;;5034548;28;20221;-72
2022/07/13 01:52:45;;;;;;;3.87;2.00;;;17.20;99.90;;;;;;5034334;28;20290;-72
2022/07/13 01:55:13;;;;;;;2.53;2.07;;;17.20;99.90;;;;;;5034938;28;20218;-73
2022/07/13 01:57:40;;;;;;;3.80;2.23;;;17.20;99.90;;;;;;5034108;28;20295;-73
2022/07/13 02:00:07;;;;;;;2.50;2.00;;;17.10;99.90;;;;;;5067974;28;20235;-72
2022/07/13 02:02:34;;;;;;;4.67;2.33;;;17.10;99.90;;;;;;5034016;28;20302;-73
2022/07/13 02:05:01;;;;;;;5.37;2.40;;;17.00;99.90;;;;;;5034523;28;20205;-74
2022/07/13 02:07:28;;;;;;;4.40;2.63;;;17.00;99.90;;;;;;5034442;28;20198;-74
2022/07/13 02:09:55;;;;;;;4.23;2.30;;;16.90;99.90;;;;;;5067454;28;20661;-71
2022/07/13 02:12:22;;;;;;;4.27;2.53;;;17.00;99.90;;;;;;5034166;28;20192;-74
2022/07/13 02:14:49;;;;;;;6.33;2.80;;;16.90;99.90;;;;;;5034249;28;20196;-73
2022/07/13 02:17:16;;;;;;;5.10;2.87;;;16.90;99.90;;;;;;5035260;28;20286;-73
2022/07/13 02:19:43;;;;;;;5.60;2.50;;;16.90;99.90;;;;;;5033944;28;20219;-74
2022/07/13 02:22:10;;;;;;;5.17;2.63;;;16.80;99.90;;;;;;5033847;28;20290;-74
2022/07/13 02:24:37;;;;;;;5.50;2.50;;;16.80;99.90;;;;;;5033866;28;20621;-74
2022/07/13 02:27:04;;;;;;;4.43;2.40;;;16.70;99.90;;;;;;5033688;28;20251;-75
2022/07/13 02:29:31;;;;;;;2.63;2.33;;;16.70;99.90;;;;;;5066934;28;20238;-74
2022/07/13 02:31:58;;;;;;;4.83;2.40;;;16.70;99.90;;;;;;5033543;28;20343;-73
2022/07/13 02:34:27;;;;;;;5.30;2.40;;;16.70;99.90;;;;;;5033863;28;20206;-74
2022/07/13 02:36:55;;;;;;;4.57;2.60;;;16.60;99.90;;;;;;5033953;28;20313;-74
2022/07/13 02:39:24;;;;;;;3.83;2.40;;;16.70;99.90;;;;;;5033911;28;20277;-74
2022/07/13 02:41:50;;;;;;;4.90;2.43;;;16.70;99.90;;;;;;5033063;28;20724;-74
2022/07/13 02:44:17;;;;;;;6.10;2.30;;;16.60;99.90;;;;;;5033574;28;20227;-73
2022/07/13 02:46:44;;;;;;;5.33;2.60;;;16.50;99.90;;;;;;5033405;28;20210;-74
2022/07/13 02:49:11;;;;;;;3.87;2.70;;;16.50;99.90;;;;;;5034695;28;20203;-74
2022/07/13 02:51:38;;;;;;;4.80;2.50;;;16.50;99.90;;;;;;5033500;28;20279;-75
2022/07/13 02:54:05;;;;;;;3.47;2.60;;;16.50;99.90;;;;;;5033220;28;20214;-73
2022/07/13 02:56:32;;;;;;;6.13;2.70;;;16.50;99.90;;;;;;5033339;28;20283;-73
2022/07/13 02:58:58;;;;;;;5.20;2.40;;;16.50;99.90;;;;;;5034761;28;20556;-74
2022/07/13 03:01:25;;;;;;;3.80;2.60;;;16.40;99.90;;;;;;5034294;28;20261;-73
2022/07/13 03:03:52;;;;;;;6.03;2.53;;;16.40;99.90;;;;;;5033213;28;20235;-74
2022/07/13 03:06:19;;;;;;;3.13;2.40;;;16.40;99.90;;;;;;5033081;28;20188;-73
2022/07/13 03:08:46;;;;;;;3.90;2.70;;;16.40;99.90;;;;;;5034330;28;20204;-74
2022/07/13 03:11:13;;;;;;;3.43;2.40;;;16.50;99.90;;;;;;5032857;28;20378;-75
2022/07/13 03:13:40;;;;;;;4.43;2.63;;;16.50;99.90;;;;;;5033208;28;20206;-74
2022/07/13 03:16:07;;;;;;;4.23;2.57;;;16.50;99.90;;;;;;5033012;28;20199;-73
2022/07/13 03:18:34;;;;;;;5.53;2.60;;;16.50;99.90;;;;;;5033346;28;20222;-73
2022/07/13 03:21:01;;;;;;;5.20;2.60;;;16.40;99.90;;;;;;5033950;28;20243;-73
2022/07/13 03:23:27;;;;;;;4.07;2.67;;;16.40;99.90;;;;;;5032761;28;20203;-74
2022/07/13 03:25:54;;;;;;;4.33;2.77;;;16.40;99.90;;;;;;5032424;28;20683;-73
2022/07/13 03:28:21;;;;;;;7.13;2.83;;;16.40;99.90;;;;;;5032127;28;20326;-73
2022/07/13 03:30:48;;;;;;;4.87;2.53;;;16.40;99.90;;;;;;5066078;28;20587;-73
2022/07/13 03:33:15;;;;;;;4.57;2.90;;;16.30;99.90;;;;;;5033627;28;20205;-74
2022/07/13 03:35:42;;;;;;;3.63;2.97;;;16.40;99.90;;;;;;5032534;28;20199;-74
2022/07/13 03:38:09;;;;;;;2.83;2.27;;;16.40;99.90;;;;;;5032718;28;20282;-73
2022/07/13 03:40:36;;;;;;;5.47;2.80;;;16.50;99.90;;;;;;5033693;28;20318;-74
2022/07/13 03:43:03;;;;;;;5.13;2.70;;;16.50;99.90;;;;;;5065689;28;20210;-73
2022/07/13 03:45:30;;;;;;;3.60;3.10;;;16.50;99.90;;;;;;5032522;28;20635;-76
2022/07/13 03:47:56;;;;;;;6.07;3.07;;;16.40;99.90;;;;;;5033770;28;20202;-74
2022/07/13 03:50:23;;;;;;;4.40;2.97;;;16.40;99.90;;;;;;5015835;28;20223;-74
2022/07/13 03:52:50;;;;;;;3.87;3.10;;;16.50;99.90;;;;;;5065467;28;20204;-75
2022/07/13 03:55:18;;;;;;;6.23;2.80;;;16.50;99.90;;;;;;5032059;28;20195;-74
2022/07/13 03:57:45;;;;;;;3.57;3.00;;;16.50;99.90;;;;;;5032807;28;20641;-73
2022/07/13 04:00:12;;;;;;;4.40;2.77;;;16.50;99.90;;;;;;5065536;28;20227;-74
2022/07/13 04:02:39;;;;;;;4.67;3.00;;;16.50;99.90;;;;;;5032060;28;20230;-74
2022/07/13 04:05:06;;;;;;;6.27;3.10;;;16.40;99.90;;;;;;5065753;28;20207;-74
2022/07/13 04:07:39;;;;;;;4.80;2.80;;;16.40;99.90;;;;;;5065354;28;20203;-74
2022/07/13 04:10:06;;;;;;;4.37;2.80;;;16.40;99.90;;;;;;5031825;28;20241;-74
2022/07/13 04:12:33;;;;;;;7.10;3.17;;;16.50;99.90;;;;;;5033303;28;20175;-75
2022/07/13 04:15:00;;;;;;;4.33;2.93;;;16.50;99.90;;;;;;5033308;28;20594;-74
2022/07/13 04:17:27;;;;;;;4.03;2.93;;;16.50;99.90;;;;;;5031856;28;20221;-74
2022/07/13 04:19:54;;;;;;;3.33;2.70;;;16.50;99.90;;;;;;5033170;28;20248;-74
2022/07/13 04:22:21;;;;;;;5.23;2.87;;;16.50;99.90;;;;;;5032040;28;20271;-73
2022/07/13 04:24:48;;;;;;;4.47;3.00;;;16.50;99.90;;;;;;5032048;28;20290;-74
2022/07/13 04:27:15;;;;;;;6.63;2.80;;;16.60;99.90;;;;;;5033433;28;20636;-75
2022/07/13 04:29:48;;;;;;;4.83;2.80;;;16.60;99.90;;;;;;5033078;28;20250;-76
2022/07/13 04:32:15;;;;;;;5.53;3.00;;;16.60;99.90;;;;;;5065178;28;20206;-75
2022/07/13 04:34:42;;;;;;;5.10;3.20;;;16.60;99.90;;;;;;5031875;28;20203;-75
2022/07/13 04:37:08;;;;;;;3.97;2.63;;;16.60;99.90;;;;;;5032195;28;20198;-77
2022/07/13 04:39:38;;;;;;;3.60;2.80;;;16.70;99.90;;;;;;5033411;28;20203;-75
2022/07/13 04:42:05;;;;;;;3.67;2.77;;;16.70;99.90;;;;;;5035756;28;20207;-76
2022/07/13 04:44:32;;;;;;;4.60;2.70;;;16.60;99.90;;;;;;5035749;28;20210;-75
2022/07/13 04:47:04;;;;;;;4.47;2.90;;;16.60;99.90;;;;;;5035668;28;20209;-75
2022/07/13 04:49:31;;;;;;;4.77;2.73;;;16.60;99.90;;;;;;5035767;28;20195;-76
2022/07/13 04:51:58;;;;;;;6.67;3.17;;;16.70;99.90;;;;;;5035691;28;20294;-75
2022/07/13 04:54:25;;;;;;;5.47;3.00;;;16.70;99.90;;;;;;5036852;28;20282;-75
2022/07/13 04:56:52;;;;;;;4.47;2.80;;;16.80;99.90;;;;;;5068821;28;20206;-74
2022/07/13 04:59:19;;;;;;;4.00;2.77;;;16.90;99.90;;;;;;5035669;28;20200;-73
2022/07/13 05:01:46;;;;;;;4.20;2.63;;;16.90;99.90;;;;;;5036387;28;20257;-73
2022/07/13 05:04:13;;;;;;;4.37;2.70;;;16.80;99.90;;;;;;5035397;28;20199;-73
2022/07/13 05:06:40;;;;;;;5.27;2.70;;;16.90;99.90;;;;;;5068481;28;20203;-73
2022/07/13 05:09:07;;;;;;;5.70;2.77;;;17.00;99.90;;;;;;5035251;28;20207;-76
2022/07/13 05:11:34;;;;;;;4.63;2.80;;;17.10;99.90;;;;;;5035242;28;20203;-72
2022/07/13 05:14:00;;;;;;;4.03;2.40;;;17.10;99.90;;;;;;5036452;28;20202;-73
2022/07/13 05:16:27;;;;;;;6.43;2.80;;;17.10;99.90;;;;;;5035630;28;20589;-72
2022/07/13 05:18:56;;;;;;;4.40;2.70;;;17.10;99.90;;;;;;5035081;28;20257;-73
2022/07/13 05:21:23;;;;;;;3.93;2.70;;;17.10;99.90;;;;;;5036137;28;20575;-75
2022/07/13 05:23:50;;;;;;;5.53;2.80;;;17.10;99.90;;;;;;5036161;28;20281;-73
2022/07/13 05:26:17;;;;;;;3.93;2.70;;;17.00;99.90;;;;;;5034894;28;20223;-72
2022/07/13 05:28:44;;;;;;;8.13;2.90;;;17.00;99.90;;;;;;5036100;28;20272;-72
2022/07/13 05:31:11;;;;;;;6.40;2.53;;;17.00;99.90;;;;;;5034884;28;20198;-74
2022/07/13 05:33:38;;;;;;;4.40;3.00;;;17.00;99.90;;;;;;5034823;28;20558;-72
2022/07/13 05:36:07;;;;;;;5.03;2.67;;;17.00;99.90;;;;;;5034752;28;20199;-72
2022/07/13 05:38:34;;;;;;;3.63;2.40;;;17.10;99.90;;;;;;5034779;28;20282;-75
2022/07/13 05:41:01;;;;;;;4.73;2.67;;;17.20;99.90;;;;;;5034935;28;20640;-72
2022/07/13 05:43:28;;;;;;;5.30;2.20;;;17.10;99.90;;;;;;5036224;28;20202;-73
2022/07/13 05:45:55;;;;;;;4.07;2.50;;;17.20;99.90;;;;;;5034514;28;20207;-73
2022/07/13 05:48:22;;;;;;;5.40;2.80;;;17.20;99.90;;;;;;5034477;28;20282;-74
2022/07/13 05:50:51;;;;;;;4.50;2.60;;;17.20;99.90;;;;;;5017661;28;20195;-73
2022/07/13 05:53:38;;;;;;;4.37;2.70;;;17.20;99.90;;;;;;5035730;28;20557;-73
2022/07/13 05:56:05;;;;;;;4.97;2.50;;;17.20;99.90;;;;;;5034442;28;20302;-73
2022/07/13 05:58:32;;;;;;;5.60;2.60;;;17.20;99.90;;;;;;5034392;28;20299;-73
2022/07/13 06:01:00;;;;;;;4.27;2.43;;;17.30;99.90;;;;;;5034650;28;20232;-73
2022/07/13 06:03:27;;;;;;;4.13;2.63;;;17.30;99.90;;;;;;5035174;28;20198;-73
2022/07/13 06:05:54;;;;;;;4.40;2.87;;;17.40;99.90;;;;;;5034191;28;20203;-73
2022/07/13 06:08:21;;;;;;;3.40;2.80;;;17.50;99.90;;;;;;5067722;28;20204;-72
2022/07/13 06:10:48;;;;;;;3.77;2.47;;;17.60;99.90;;;;;;5035581;28;20206;-72
2022/07/13 06:13:14;;;;;;;4.37;2.77;;;17.80;99.90;;;;;;5035386;28;20570;-72
2022/07/13 06:15:41;;;;;;;9.70;3.00;;;18.00;99.90;;;;;;5034427;28;20199;-73
2022/07/13 06:18:08;;;;;;;7.93;3.40;;;18.00;99.90;;;;;;5034245;28;20726;-73
2022/07/13 06:20:35;;;;;;;3.00;2.50;;;18.00;99.90;;;;;;5035043;28;20302;-72
2022/07/13 06:23:11;;;;;;;6.17;2.50;;;18.00;99.90;;;;;;5033892;28;20224;-72
2022/07/13 06:25:39;;;;;;;2.97;2.40;;;18.30;99.90;;;;;;5033850;28;20199;-77
2022/07/13 06:28:06;;;;;;;4.43;2.50;;;18.30;99.90;;;;;;5034562;28;20240;-73
2022/07/13 06:30:36;;;;;;;4.80;2.73;;;18.30;99.90;;;;;;5033891;28;20295;-73
2022/07/13 06:33:03;;;;;;;2.90;2.30;;;18.50;99.90;;;;;;5033414;28;20276;-74
2022/07/13 06:35:31;;;;;;;4.10;2.40;;;18.50;99.90;;;;;;5033796;28;20302;-73
2022/07/13 06:37:58;;;;;;;5.03;2.30;;;18.50;99.90;;;;;;5067199;28;20192;-73
2022/07/13 06:40:26;;;;;;;6.13;2.30;;;18.60;99.90;;;;;;5034737;28;20707;-72
2022/07/13 06:42:53;;;;;;;5.33;2.60;;;18.70;99.90;;;;;;5033540;28;20207;-73
2022/07/13 06:45:23;;;;;;;4.50;2.63;;;18.90;99.90;;;;;;5066795;28;20258;-72
2022/07/13 06:47:51;;;;;;;4.97;2.17;;;19.00;99.90;;;;;;5033510;28;20645;-73
2022/07/13 06:50:19;;;;;;;3.03;2.00;;;19.30;99.90;;;;;;5066633;28;20199;-74
2022/07/13 06:52:47;;;;;;;3.57;2.40;;;19.40;99.90;;;;;;5033237;28;20206;-73
2022/07/13 06:55:15;;;;;;;2.97;2.27;;;19.50;99.90;;;;;;5066543;28;20234;-72
2022/07/13 06:57:42;;;;;;;2.80;2.00;;;19.60;99.90;;;;;;5066470;28;20214;-74
2022/07/13 07:00:10;;;;;;;2.60;1.90;;;19.60;99.90;;;;;;5033014;28;20187;-73
2022/07/13 07:02:37;;;;;;;4.23;1.80;;;19.70;99.90;;;;;;5065531;28;20227;-75
2022/07/13 07:05:07;;;;;;;2.47;1.80;;;19.90;99.90;;;;;;5034647;28;20198;-75
2022/07/13 07:07:34;;;;;;;3.00;2.10;;;20.00;99.90;;;;;;5033116;28;20227;-74
2022/07/13 07:10:01;;;;;;;3.17;1.60;;;20.10;99.90;;;;;;5033012;28;20238;-73
2022/07/13 07:12:29;;;;;;;2.47;1.83;;;20.30;99.90;;;;;;5034023;28;20266;-75
2022/07/13 07:14:59;;;;;;;2.77;1.57;;;20.40;99.90;;;;;;5033888;28;20230;-75
2022/07/13 07:17:27;;;;;;;1.90;1.50;;;20.60;99.90;;;;;;5035069;28;20280;-73
2022/07/13 07:19:59;;;;;;;3.47;1.70;;;20.70;99.90;;;;;;5033903;28;20294;-73
2022/07/13 07:22:26;;;;;;;4.83;1.87;;;20.90;99.90;;;;;;5034631;28;20610;-71
2022/07/13 07:24:53;;;;;;;4.83;2.47;;;21.00;99.90;;;;;;5034315;28;20206;-72
2022/07/13 07:27:25;;;;;;;2.27;1.70;;;21.20;99.90;;;;;;5032546;28;20227;-72
2022/07/13 07:29:52;;;;;;;2.23;1.50;;;21.20;99.90;;;;;;5032363;28;20224;-75
2022/07/13 07:32:19;;;;;;;4.30;1.70;;;21.40;99.90;;;;;;5032216;28;20286;-77
2022/07/13 07:34:46;;;;;;;2.50;1.60;;;21.40;99.90;;;;;;5032734;28;20709;-72
2022/07/13 07:37:13;;;;;;;3.17;1.60;;;21.50;99.90;;;;;;5032463;28;20559;-72
2022/07/13 07:39:40;;;;;;;1.37;1.20;;;21.60;99.90;;;;;;5032745;28;20195;-74
2022/07/13 07:42:07;;;;;;;2.47;1.40;;;21.70;99.90;;;;;;5032340;28;20223;-72
2022/07/13 07:44:35;;;;;;;3.63;1.50;;;21.90;99.90;;;;;;5033579;28;20195;-74
2022/07/13 07:47:05;;;;;;;2.80;1.20;;;21.90;99.90;;;;;;5032153;28;20209;-73
2022/07/13 07:49:32;;;;;;;3.30;1.40;;;21.80;99.90;;;;;;5032647;28;20282;-73
2022/07/13 07:52:07;;;;;;;3.63;1.40;;;21.90;99.90;;;;;;5032117;28;20202;-73
2022/07/13 07:54:54;;;;;;;2.03;1.23;;;22.00;99.90;;;;;;5032210;28;20656;-72
2022/07/13 07:57:27;;;;;;;3.63;1.30;;;22.20;99.90;;;;;;5032331;28;20199;-74
2022/07/13 07:59:54;;;;;;;3.83;1.30;;;22.20;99.90;;;;;;5032316;28;20657;-73
2022/07/13 08:02:21;;;;;;;4.17;1.30;;;22.30;99.90;;;;;;5033173;28;20217;-72
2022/07/13 08:04:49;;;;;;;1.50;1.07;;;22.30;99.90;;;;;;5032346;28;20206;-71
2022/07/13 08:07:16;;;;;;;3.67;1.30;;;22.40;99.90;;;;;;5033398;28;20207;-72
2022/07/13 08:09:43;;;;;;;3.47;1.30;;;22.50;99.90;;;;;;5031634;28;20199;-72
2022/07/13 08:12:11;;;;;;;2.63;1.30;;;22.60;99.90;;;;;;5031807;28;20630;-75
2022/07/13 08:14:38;;;;;;;2.07;1.10;;;22.60;99.90;;;;;;5031950;28;20656;-74
2022/07/13 08:17:05;;;;;;;1.97;1.30;;;22.80;99.90;;;;;;5028012;28;20196;-74
2022/07/13 08:19:32;;;;;;;5.00;1.20;;;22.90;99.90;;;;;;5064802;28;20684;-73
2022/07/13 08:22:08;;;;;;;4.37;1.23;;;23.10;99.90;;;;;;5031695;28;20219;-74
2022/07/13 08:24:35;;;;;;;2.63;1.40;;;23.10;99.90;;;;;;5032266;28;20221;-74
2022/07/13 08:27:02;;;;;;;3.47;1.10;;;23.30;99.90;;;;;;5031842;28;20306;-74
2022/07/13 08:29:29;;;;;;;6.78;1.08;;;23.90;99.90;;;;;;5065269;28;20258;-75
2022/07/13 08:31:56;;;;;;;4.63;1.15;;;24.60;99.90;;;;;;5030413;28;20648;-76
2022/07/13 08:39:54;;;;;;;1.75;1.10;;;25.40;99.90;;;;;;5031813;28;20206;-80
2022/07/13 08:42:21;;;;;;;2.88;1.02;;;25.80;99.90;;;;;;5031033;28;20222;-81
2022/07/13 08:44:48;;;;;;;2.28;1.13;;;25.80;99.90;;;;;;5065595;28;20200;-78
2022/07/13 08:47:17;;;;;;;2.78;1.23;;;25.90;99.90;;;;;;5032781;28;20664;-79
2022/07/13 08:49:44;;;;;;;2.08;0.95;;;26.40;99.90;;;;;;5032547;28;20231;-74
2022/07/13 08:52:15;;;;;;;2.78;0.93;;;26.80;99.90;;;;;;5034118;28;20199;-75
2022/07/13 08:54:43;;;;;;;4.22;1.25;;;26.80;98.70;;;;;;5065091;28;20199;-77
2022/07/13 08:57:10;;;;;;;3.00;0.93;;;26.90;99.10;;;;;;5031623;28;20207;-78
2022/07/13 08:59:37;;;;;;;1.92;1.08;;;26.80;98.50;;;;;;5065164;28;20203;-76
2022/07/13 09:02:04;;;;;;;3.78;1.00;;;27.30;98.10;;;;;;5064668;28;20215;-75
2022/07/13 09:04:31;;;;;;;3.80;1.02;;;27.20;97.80;;;;;;5031880;28;20419;-78
2022/07/13 09:06:58;;;;;;;3.05;1.20;;;27.30;96.40;;;;;;5032862;28;20214;-76
2022/07/13 09:09:31;;;;;;;2.83;0.90;;;27.40;97.30;;;;;;5031853;28;20188;-77
2022/07/13 09:12:23;;;;;;;2.00;1.20;;;27.90;96.90;;;;;;5011511;28;20432;-79
2022/07/13 09:14:56;;;;;;;3.90;1.50;;;27.70;95.20;;;;;;5012409;28;20460;-74
2022/07/13 09:17:43;;;;;;;1.98;0.90;;;27.30;95.70;;;;;;5011106;28;20200;-76
2022/07/13 09:20:10;;;;;;;5.75;1.13;;;27.80;95.00;;;;;;5044229;28;20667;-76
2022/07/13 09:22:57;;;;;;;1.88;0.90;;;28.30;94.80;;;;;;5028696;28;20265;-75
2022/07/13 09:25:32;;;;;;;1.45;1.00;;;28.40;95.90;;;;;;5031163;28;20204;-76
2022/07/13 09:28:06;;;;;;;3.33;0.88;;;28.20;93.00;;;;;;5034126;28;20289;-76
2022/07/13 09:30:36;;;;;;;2.55;0.95;;;27.50;92.50;;;;;;5035880;28;20222;-76
2022/07/13 09:33:03;;;;;;;2.55;1.10;;;27.30;94.10;;;;;;5034896;28;20212;-77
2022/07/13 09:35:46;;;;;;;4.28;1.63;;;27.40;93.40;;;;;;5034710;28;20203;-76
2022/07/13 09:38:34;;;;;;;5.45;1.33;;;26.70;94.20;;;;;;5067499;28;20752;-76
2022/07/13 09:41:19;;;;;;;2.67;1.10;;;26.70;93.30;;;;;;5035200;28;20214;-76
2022/07/13 09:47:02;;;;;;;3.00;1.17;;;26.50;94.20;;;;;;5061557;28;20197;-77
2022/07/13 09:49:46;;;;;;;3.90;0.90;;;26.40;93.70;;;;;;5026083;28;20196;-75
2022/07/13 09:52:18;;;;;;;2.78;1.38;;;26.90;95.30;;;;;;5062161;28;20683;-77
2022/07/13 09:54:56;;;;;;;3.50;1.40;;;27.20;93.90;;;;;;5017569;28;20204;-76
2022/07/13 09:57:25;;;;;;;2.97;1.20;;;27.10;93.60;;;;;;5034183;28;20294;-77
2022/07/13 09:59:53;;;;;;;3.72;1.02;;;27.60;94.30;;;;;;5034523;28;20226;-77
2022/07/13 10:02:20;;;;;;;3.78;1.20;;;27.70;92.90;;;;;;5034170;28;20238;-74
2022/07/13 10:04:49;;;;;;;4.22;0.90;;;28.20;93.40;;;;;;5034174;28;20215;-76
2022/07/13 10:07:18;;;;;;;2.35;1.00;;;27.80;90.50;;;;;;5033902;28;20191;-79
2022/07/13 10:09:45;;;;;;;1.50;0.93;;;27.80;90.30;;;;;;5034359;28;20210;-75
2022/07/13 10:12:13;;;;;;;2.30;1.10;;;27.60;91.00;;;;;;5035403;28;20539;-75
2022/07/13 10:14:41;;;;;;;4.53;0.95;;;28.10;91.50;;;;;;5067478;28;20196;-74
2022/07/13 10:17:14;;;;;;;3.75;1.20;;;28.40;90.10;;;;;;5034036;28;20228;-82
2022/07/13 10:19:51;;;;;;;2.58;1.20;;;28.30;91.00;;;;;;5067333;28;20253;-76
2022/07/13 10:22:21;;;;;;;5.28;1.13;;;28.90;91.00;;;;;;5033742;28;20223;-78
2022/07/13 10:24:59;;;;;;;2.63;1.23;;;28.80;90.00;;;;;;5030492;28;20196;-77
2022/07/13 10:27:35;;;;;;;3.78;1.20;;;29.10;90.20;;;;;;5030212;28;20223;-78
2022/07/13 10:30:23;;;;;;;4.72;1.65;;;29.50;90.80;;;;;;5013856;28;20231;-79
2022/07/13 10:32:51;;;;;;;3.17;1.20;;;30.10;89.80;;;;;;5052083;28;20286;-75
2022/07/13 10:35:20;;;;;;;3.00;1.48;;;30.20;87.40;;;;;;5030599;28;20195;-77
2022/07/13 10:37:56;;;;;;;4.45;1.50;;;29.60;84.40;;;;;;5034555;28;20198;-76
2022/07/13 10:40:36;;;;;;;3.28;1.30;;;29.10;86.40;;;;;;5014978;28;20222;-78
2022/07/13 10:43:04;;;;;;;2.90;1.20;;;29.20;88.90;;;;;;5046875;28;20327;-77
2022/07/13 10:48:34;;;;;;;1.98;1.20;;;28.50;88.20;;;;;;5062859;28;20221;-74
2022/07/13 10:51:02;;;;;;;6.50;1.45;;;29.20;89.60;;;;;;5033150;28;20196;-75
2022/07/13 10:53:38;;;;;;;5.18;1.75;;;29.10;88.60;;;;;;5032990;28;20290;-77
2022/07/13 10:56:31;;;;;;;7.70;1.50;;;29.30;88.70;;;;;;5034304;28;20227;-77
2022/07/13 10:58:58;;;;;;;4.30;1.73;;;29.10;88.10;;;;;;5033013;28;20211;-76
2022/07/13 11:01:39;;;;;;;4.93;1.80;;;29.20;87.00;;;;;;5032876;28;20439;-75
2022/07/13 11:04:07;;;;;;;3.20;1.40;;;29.30;88.00;;;;;;5033880;28;20557;-75
2022/07/13 11:06:35;;;;;;;3.60;1.77;;;29.40;89.00;;;;;;5031382;28;20286;-73
2022/07/13 11:09:22;;;;;;;2.70;1.52;;;29.30;86.90;;;;;;5064315;28;20249;-77
2022/07/13 11:11:53;;;;;;;3.25;1.50;;;29.60;87.70;;;;;;5061416;28;20708;-72
2022/07/13 11:14:41;;;;;;;3.63;1.50;;;30.20;87.70;;;;;;5032712;28;20209;-74
2022/07/13 11:17:27;;;;;;;2.35;1.50;;;29.80;86.40;;;;;;5049663;28;20199;-75
2022/07/13 11:20:09;;;;;;;4.82;1.60;;;30.00;85.70;;;;;;5032813;28;20195;-75
2022/07/13 11:25:46;;;;;;;4.95;1.52;;;30.50;82.30;;;;;;5033315;28;20195;-74
2022/07/13 11:28:23;;;;;;;6.57;1.60;;;30.00;83.70;;;;;;5032053;28;20643;-75
2022/07/13 11:30:54;;;;;;;3.45;1.40;;;30.80;84.20;;;;;;5032393;28;20330;-74
2022/07/13 11:33:23;;;;;;;5.68;1.50;;;31.20;82.50;;;;;;5031906;28;20226;-77
2022/07/13 11:35:50;;;;;;;3.25;1.30;;;31.60;80.90;;;;;;5016180;28;20196;-79
2022/07/13 11:38:19;;;;;;;2.05;1.40;;;31.30;81.30;;;;;;5033863;28;20206;-79
2022/07/13 11:40:49;;;;;;;2.95;1.40;;;30.80;82.90;;;;;;5032540;28;20187;-76
2022/07/13 11:43:16;;;;;;;2.20;1.60;;;31.80;82.30;;;;;;5032609;28;20208;-78
2022/07/13 11:45:43;;;;;;;5.20;1.55;;;32.00;80.30;;;;;;5032464;28;20283;-76
2022/07/13 11:48:12;;;;;;;4.00;1.50;;;31.10;77.30;;;;;;5031849;28;20204;-78
2022/07/13 11:50:39;;;;;;;6.70;1.55;;;29.80;80.30;;;;;;5016162;28;20195;-78
2022/07/13 11:53:06;;;;;;;4.75;1.30;;;30.20;80.80;;;;;;5032846;28;20614;-77
2022/07/13 11:55:37;;;;;;;3.50;1.40;;;30.80;77.60;;;;;;5033178;28;20223;-78
2022/07/13 11:58:19;;;;;;;4.47;1.40;;;30.80;78.00;;;;;;5065786;28;20203;-80
2022/07/13 12:00:46;;;;;;;3.33;1.20;;;31.40;78.60;;;;;;5033576;28;20195;-80
2022/07/13 12:03:13;;;;;;;3.40;1.40;;;31.90;73.80;;;;;;5015592;28;20233;-77
2022/07/13 12:05:44;;;;;;;6.22;1.63;;;31.90;74.80;;;;;;5031896;28;20206;-80
2022/07/13 12:08:11;;;;;;;3.38;1.60;;;31.20;76.00;;;;;;5065051;28;20227;-78
2022/07/13 12:10:38;;;;;;;2.65;1.58;;;30.00;77.20;;;;;;5031670;28;20222;-77
2022/07/13 12:13:05;;;;;;;3.53;1.60;;;29.20;82.00;;;;;;5029230;28;20203;-75
2022/07/13 12:15:33;;;;;;;4.85;1.40;;;28.50;83.20;;;;;;5031895;28;20290;-77
2022/07/13 12:18:06;;;;;;;3.58;1.60;;;28.50;83.00;;;;;;5031731;28;20200;-79
2022/07/13 12:20:34;;;;;;;6.05;1.70;;;28.70;84.50;;;;;;5031418;28;20419;-76
2022/07/13 12:23:07;;;;;;;4.97;1.80;;;28.70;85.20;;;;;;5031818;28;20219;-74
2022/07/13 12:25:42;;;;;;;3.78;1.60;;;29.10;86.80;;;;;;5015837;28;20294;-82
2022/07/13 12:28:13;;;;;;;3.40;1.50;;;29.20;90.90;;;;;;5031575;28;20215;-82
2022/07/13 12:31:00;;;;;;;3.58;1.65;;;29.10;89.90;;;;;;5018357;28;20192;-81
2022/07/13 12:33:45;;;;;;;4.43;1.80;;;28.80;86.90;;;;;;5011960;28;20210;-78
2022/07/13 12:36:13;;;;;;;6.43;1.60;;;28.80;90.30;;;;;;5012233;28;20222;-79
2022/07/13 12:39:00;;;;;;;2.60;1.70;;;29.00;91.00;;;;;;5028399;28;20538;-78
2022/07/13 12:41:34;;;;;;;1.73;1.40;;;28.90;86.90;;;;;;5016355;28;20275;-76
2022/07/13 12:44:04;;;;;;;3.00;1.33;;;28.60;86.30;;;;;;5065242;28;20195;-78
2022/07/13 12:46:45;;;;;;;3.72;1.60;;;28.10;86.50;;;;;;5058095;28;20211;-85
2022/07/13 12:49:12;;;;;;;4.80;1.70;;;28.00;89.60;;;;;;5012194;28;20702;-80
2022/07/13 12:51:49;;;;;;;3.55;1.50;;;28.50;90.40;;;;;;5048695;28;20290;-77
2022/07/13 12:54:42;;;;;;;5.28;1.50;;;28.60;91.10;;;;;;5033179;28;20286;-77
2022/07/13 12:57:11;;;;;;;2.65;1.55;;;28.70;89.20;;;;;;5064946;28;20199;-75
2022/07/13 12:59:38;;;;;;;5.85;1.55;;;28.80;90.80;;;;;;5033189;28;20623;-75
2022/07/13 13:02:05;;;;;;;3.65;1.70;;;29.40;87.70;;;;;;5035417;28;20230;-75
2022/07/13 13:04:33;;;;;;;3.65;1.73;;;29.70;89.10;;;;;;5032541;28;20184;-77
2022/07/13 13:07:01;;;;;;;2.97;1.58;;;29.40;87.60;;;;;;5035121;28;20551;-77
2022/07/13 13:09:28;;;;;;;4.55;1.70;;;29.60;91.20;;;;;;5035241;28;20289;-76
2022/07/13 13:11:55;;;;;;;2.30;1.38;;;29.80;89.60;;;;;;5035274;28;20302;-76
2022/07/13 13:14:22;;;;;;;3.03;1.70;;;29.50;88.20;;;;;;5035220;28;20223;-75